createdAt,value
2018-12-06T00:01:27.506Z,4.27
2018-12-06T00:03:54.979Z,4.50
2018-12-06T00:06:22.436Z,4.33
2018-12-06T00:08:49.936Z,4.30
2018-12-06T00:11:17.448Z,4.97
2018-12-06T00:13:44.909Z,4.40
2018-12-06T00:16:12.378Z,5.03
2018-12-06T00:18:39.844Z,4.60
2018-12-06T00:21:07.329Z,5.40
2018-12-06T00:23:34.795Z,5.93
2018-12-06T00:26:02.275Z,5.83
2018-12-06T00:28:29.737Z,6.67
2018-12-06T00:30:57.291Z,5.77
2018-12-06T00:33:24.794Z,5.40
2018-12-06T00:35:52.284Z,5.57
2018-12-06T00:38:19.742Z,5.73
2018-12-06T00:40:47.221Z,5.57
2018-12-06T00:43:14.693Z,5.97
2018-12-06T00:45:42.170Z,5.10
2018-12-06T00:48:09.632Z,5.13
2018-12-06T00:50:37.111Z,6.03
2018-12-06T00:53:04.593Z,5.83
2018-12-06T00:55:32.052Z,6.53
2018-12-06T00:57:59.543Z,6.70
2018-12-06T01:00:27.020Z,6.57
2018-12-06T01:02:54.501Z,6.87
2018-12-06T01:05:21.965Z,6.50
2018-12-06T01:07:49.525Z,6.30
2018-12-06T01:10:17.003Z,6.73
2018-12-06T01:12:44.484Z,6.10
2018-12-06T01:15:12.032Z,6.43
2018-12-06T01:17:39.520Z,6.80
2018-12-06T01:20:07.271Z,5.77
2018-12-06T01:22:34.764Z,6.40
2018-12-06T01:25:02.219Z,4.97
2018-12-06T01:27:29.727Z,5.73
2018-12-06T01:29:57.183Z,6.13
2018-12-06T01:32:24.653Z,5.80
2018-12-06T01:34:52.136Z,5.50
2018-12-06T01:37:19.605Z,5.87
2018-12-06T01:39:47.085Z,6.03
2018-12-06T01:42:14.549Z,5.53
2018-12-06T01:44:42.045Z,5.57
2018-12-06T01:47:09.505Z,5.30
2018-12-06T01:49:36.976Z,5.83
2018-12-06T01:52:04.447Z,5.67
2018-12-06T01:54:31.925Z,5.53
2018-12-06T01:56:59.389Z,5.43
2018-12-06T01:59:26.868Z,6.13
2018-12-06T02:01:54.708Z,5.83
2018-12-06T02:04:22.184Z,4.63
2018-12-06T02:06:49.645Z,6.13
2018-12-06T02:09:17.125Z,6.07
2018-12-06T02:11:44.588Z,6.17
2018-12-06T02:14:12.071Z,5.67
2018-12-06T02:16:39.528Z,5.43
2018-12-06T02:19:07.008Z,6.00
2018-12-06T02:21:34.476Z,5.40
2018-12-06T02:24:01.948Z,5.80
2018-12-06T02:26:29.414Z,4.90
2018-12-06T02:28:56.893Z,5.23
2018-12-06T02:31:24.350Z,5.30
2018-12-06T02:33:51.856Z,5.23
2018-12-06T02:36:19.312Z,4.43
2018-12-06T02:38:46.813Z,4.70
2018-12-06T02:41:14.311Z,4.60
2018-12-06T02:43:41.780Z,4.67
2018-12-06T02:46:09.256Z,4.50
2018-12-06T02:48:36.749Z,4.20
2018-12-06T02:51:04.426Z,4.57
2018-12-06T02:53:31.973Z,4.60
2018-12-06T02:55:59.454Z,4.60
2018-12-06T02:58:26.933Z,3.87
2018-12-06T03:00:54.419Z,4.30
2018-12-06T03:03:21.973Z,4.30
2018-12-06T03:05:49.458Z,4.00
2018-12-06T03:08:16.920Z,3.90
2018-12-06T03:10:44.406Z,3.90
2018-12-06T03:13:11.871Z,3.77
2018-12-06T03:15:39.353Z,4.23
2018-12-06T03:18:06.820Z,4.10
2018-12-06T03:20:34.300Z,3.90
2018-12-06T03:23:01.777Z,4.30
2018-12-06T03:25:29.256Z,3.90
2018-12-06T03:27:56.735Z,3.17
2018-12-06T03:30:24.362Z,3.50
2018-12-06T03:32:51.845Z,3.70
2018-12-06T03:35:19.402Z,3.80
2018-12-06T03:37:46.876Z,3.60
2018-12-06T03:40:14.351Z,3.27
2018-12-06T03:42:41.832Z,3.20
2018-12-06T03:45:09.376Z,3.10
2018-12-06T03:47:36.862Z,3.33
2018-12-06T03:50:05.516Z,3.57
2018-12-06T03:52:33.071Z,3.87
2018-12-06T03:55:00.532Z,3.50
2018-12-06T03:57:28.130Z,3.73
2018-12-06T03:59:55.664Z,3.77
2018-12-06T04:02:23.137Z,4.47
2018-12-06T04:04:50.604Z,4.17
2018-12-06T04:07:18.104Z,4.53
2018-12-06T04:09:45.571Z,4.37
2018-12-06T04:12:13.369Z,3.97
2018-12-06T04:14:40.833Z,4.03
2018-12-06T04:17:08.312Z,3.60
2018-12-06T04:19:35.817Z,4.50
2018-12-06T04:22:03.300Z,4.00
2018-12-06T04:24:30.885Z,3.50
2018-12-06T04:26:58.364Z,3.60
2018-12-06T04:29:25.835Z,3.90
2018-12-06T04:31:53.322Z,3.87
2018-12-06T04:34:21.102Z,4.30
2018-12-06T04:36:48.580Z,4.87
2018-12-06T04:39:16.109Z,4.40
2018-12-06T04:41:43.569Z,4.97
2018-12-06T04:44:11.046Z,4.83
2018-12-06T04:46:38.607Z,5.10
2018-12-06T04:49:06.079Z,5.30
2018-12-06T04:51:33.540Z,5.40
2018-12-06T04:54:01.020Z,5.13
2018-12-06T04:56:28.481Z,5.20
2018-12-06T04:58:55.968Z,5.20
2018-12-06T05:01:23.435Z,5.80
2018-12-06T05:03:51.272Z,5.20
2018-12-06T05:06:18.932Z,4.80
2018-12-06T05:08:46.408Z,6.13
2018-12-06T05:11:13.864Z,6.10
2018-12-06T05:13:41.356Z,6.17
2018-12-06T05:16:08.814Z,5.67
2018-12-06T05:18:36.353Z,5.83
2018-12-06T05:21:03.807Z,6.90
2018-12-06T05:23:31.284Z,5.93
2018-12-06T05:25:58.745Z,6.87
2018-12-06T05:28:26.321Z,6.80
2018-12-06T05:30:53.784Z,6.20
2018-12-06T05:33:21.725Z,6.00
2018-12-06T05:35:49.193Z,6.60
2018-12-06T05:38:16.860Z,5.77
2018-12-06T05:40:44.445Z,5.43
2018-12-06T05:43:12.151Z,5.30
2018-12-06T05:45:39.689Z,5.60
2018-12-06T05:48:07.380Z,4.97
2018-12-06T05:50:34.875Z,5.03
2018-12-06T05:53:02.516Z,5.20
2018-12-06T05:55:30.268Z,5.13
2018-12-06T05:57:58.488Z,5.37
2018-12-06T06:00:26.875Z,5.23
2018-12-06T06:02:55.451Z,5.10
2018-12-06T06:05:23.347Z,6.10
2018-12-06T06:07:51.923Z,6.07
2018-12-06T06:10:20.425Z,6.00
2018-12-06T06:12:47.880Z,6.20
2018-12-06T06:15:15.360Z,7.00
2018-12-06T06:17:42.917Z,7.60
2018-12-06T06:20:10.407Z,7.23
2018-12-06T06:22:37.881Z,7.77
2018-12-06T06:25:05.568Z,7.67
2018-12-06T06:27:33.044Z,8.60
2018-12-06T06:30:00.536Z,9.27
2018-12-06T06:32:27.996Z,8.83
2018-12-06T06:34:55.488Z,9.50
2018-12-06T06:37:22.960Z,9.10
2018-12-06T06:39:50.427Z,9.40
2018-12-06T06:42:17.988Z,9.67
2018-12-06T06:44:45.460Z,10.47
2018-12-06T06:47:12.953Z,10.70
2018-12-06T06:49:41.178Z,9.33
2018-12-06T06:52:09.591Z,10.73
2018-12-06T06:54:37.059Z,11.93
2018-12-06T06:57:04.626Z,12.43
2018-12-06T06:59:32.091Z,11.93
2018-12-06T07:01:59.564Z,13.17
2018-12-06T07:04:27.052Z,12.77
2018-12-06T07:06:54.512Z,12.93
2018-12-06T07:09:22.277Z,13.47
2018-12-06T07:11:49.758Z,14.43
2018-12-06T07:14:17.531Z,14.13
2018-12-06T07:16:45.124Z,15.90
2018-12-06T07:19:12.700Z,15.97
2018-12-06T07:21:40.821Z,16.83
2018-12-06T07:24:08.340Z,17.53
2018-12-06T07:26:35.834Z,16.80
2018-12-06T07:29:03.596Z,17.33
2018-12-06T07:31:31.462Z,17.53
2018-12-06T07:33:59.006Z,18.47
2018-12-06T07:36:26.579Z,18.33
2018-12-06T07:38:54.189Z,20.33
2018-12-06T07:41:21.738Z,20.57
2018-12-06T07:43:49.231Z,20.10
2018-12-06T07:46:16.711Z,19.63
2018-12-06T07:48:45.069Z,20.20
2018-12-06T07:51:12.659Z,20.93
2018-12-06T07:53:42.097Z,20.63
2018-12-06T07:56:09.617Z,20.83
2018-12-06T07:58:37.161Z,21.10
2018-12-06T08:01:04.673Z,20.63
2018-12-06T08:03:32.288Z,19.73
2018-12-06T08:05:59.879Z,19.60
2018-12-06T08:08:27.736Z,20.30
2018-12-06T08:10:55.268Z,17.40
2018-12-06T08:13:23.640Z,17.63
2018-12-06T08:15:51.121Z,17.83
2018-12-06T08:18:18.620Z,17.27
2018-12-06T08:20:46.866Z,16.90
2018-12-06T08:23:14.436Z,15.53
2018-12-06T08:25:41.907Z,15.40
2018-12-06T08:28:09.434Z,15.90
2018-12-06T08:30:36.990Z,14.43
2018-12-06T08:33:04.555Z,14.80
2018-12-06T08:35:32.023Z,12.83
2018-12-06T08:37:59.693Z,14.73
2018-12-06T08:40:27.378Z,13.90
2018-12-06T08:42:54.967Z,14.40
2018-12-06T08:45:22.437Z,13.93
2018-12-06T08:47:49.924Z,14.60
2018-12-06T08:50:17.401Z,13.43
2018-12-06T08:52:44.883Z,14.50
2018-12-06T08:55:12.377Z,13.77
2018-12-06T08:57:39.959Z,12.30
2018-12-06T09:00:09.056Z,12.20
2018-12-06T09:02:36.560Z,11.97
2018-12-06T09:05:05.693Z,11.00
2018-12-06T09:07:33.348Z,12.33
2018-12-06T09:10:00.904Z,11.73
2018-12-06T09:12:28.756Z,12.37
2018-12-06T09:14:56.231Z,12.20
2018-12-06T09:17:23.733Z,11.17
2018-12-06T09:19:52.072Z,11.17
2018-12-06T09:22:19.585Z,12.33
2018-12-06T09:24:47.065Z,11.43
2018-12-06T09:27:14.776Z,10.80
2018-12-06T09:29:42.307Z,10.23
2018-12-06T09:32:09.803Z,11.77
2018-12-06T09:34:37.280Z,10.53
2018-12-06T09:37:04.831Z,9.63
2018-12-06T09:39:32.663Z,9.77
2018-12-06T09:42:00.185Z,9.80
2018-12-06T09:44:27.673Z,10.60
2018-12-06T09:46:55.145Z,8.80
2018-12-06T09:49:22.660Z,8.30
2018-12-06T09:51:50.150Z,8.40
2018-12-06T09:54:17.634Z,8.20
2018-12-06T09:56:45.111Z,7.80
2018-12-06T09:59:12.591Z,7.40
2018-12-06T10:01:40.084Z,6.73
2018-12-06T10:04:07.586Z,6.90
2018-12-06T10:06:35.098Z,7.27
2018-12-06T10:09:02.860Z,7.50
2018-12-06T10:11:30.388Z,6.43
2018-12-06T10:13:57.967Z,6.53
2018-12-06T10:16:25.432Z,5.87
2018-12-06T10:18:52.947Z,7.53
2018-12-06T10:21:20.553Z,6.57
2018-12-06T10:23:48.066Z,6.07
2018-12-06T10:26:15.609Z,6.00
2018-12-06T10:28:43.092Z,6.20
2018-12-06T10:31:10.628Z,6.10
2018-12-06T10:33:38.092Z,6.07
2018-12-06T10:36:05.576Z,5.83
2018-12-06T10:38:33.064Z,6.10
2018-12-06T10:41:00.561Z,5.60
2018-12-06T10:43:28.029Z,5.47
2018-12-06T10:45:55.527Z,5.70
2018-12-06T10:48:22.994Z,5.20
2018-12-06T10:50:50.555Z,6.03
2018-12-06T10:53:18.024Z,5.27
2018-12-06T10:55:45.521Z,5.40
2018-12-06T10:58:12.980Z,5.47
2018-12-06T11:00:46.320Z,4.80
2018-12-06T11:03:15.901Z,4.87
2018-12-06T11:05:43.391Z,5.73
2018-12-06T11:08:10.859Z,4.40
2018-12-06T11:10:38.341Z,4.17
2018-12-06T11:13:05.852Z,5.07
2018-12-06T11:15:33.340Z,4.67
2018-12-06T11:18:00.827Z,4.97
2018-12-06T11:20:28.326Z,4.50
2018-12-06T11:22:55.797Z,4.80
2018-12-06T11:25:23.309Z,4.67
2018-12-06T11:28:21.814Z,4.93
2018-12-06T11:30:49.511Z,4.80
2018-12-06T11:33:17.163Z,4.50
2018-12-06T11:35:44.652Z,5.07
2018-12-06T11:38:12.146Z,4.97
2018-12-06T11:40:39.610Z,4.67
2018-12-06T11:43:07.110Z,4.80
2018-12-06T11:45:34.627Z,5.10
2018-12-06T11:48:02.189Z,4.10
2018-12-06T11:50:29.660Z,5.83
2018-12-06T11:52:57.148Z,5.10
2018-12-06T11:55:24.741Z,4.20
2018-12-06T11:57:52.521Z,3.80
2018-12-06T12:00:19.988Z,3.90
2018-12-06T12:02:47.481Z,3.83
2018-12-06T12:05:14.950Z,4.43
2018-12-06T12:07:42.453Z,4.20
2018-12-06T12:10:10.006Z,4.10
2018-12-06T12:12:37.491Z,4.00
2018-12-06T12:15:06.519Z,3.53
2018-12-06T12:17:34.004Z,4.93
2018-12-06T12:20:01.491Z,4.83
2018-12-06T12:22:28.960Z,4.43
2018-12-06T12:24:56.463Z,4.20
2018-12-06T12:27:23.932Z,4.77
2018-12-06T12:29:51.420Z,4.63
2018-12-06T12:32:18.897Z,4.57
2018-12-06T12:34:46.381Z,4.40
2018-12-06T12:37:13.854Z,4.57
2018-12-06T12:39:41.364Z,4.23
2018-12-06T12:42:08.842Z,4.43
2018-12-06T12:44:36.352Z,5.53
2018-12-06T12:47:03.898Z,4.50
2018-12-06T12:49:31.380Z,4.37
2018-12-06T12:51:58.853Z,4.60
2018-12-06T12:54:26.384Z,4.27
2018-12-06T12:56:53.867Z,4.50
2018-12-06T12:59:21.349Z,4.43
2018-12-06T13:01:48.994Z,4.23
2018-12-06T13:04:16.468Z,4.63
2018-12-06T13:06:43.932Z,4.63
2018-12-06T13:09:11.447Z,3.90
2018-12-06T13:11:39.018Z,3.40
2018-12-06T13:14:06.498Z,4.50
2018-12-06T13:16:33.968Z,3.53
2018-12-06T13:19:01.473Z,4.00
2018-12-06T13:21:28.944Z,3.53
2018-12-06T13:23:56.502Z,3.53
2018-12-06T13:26:24.113Z,3.80
2018-12-06T13:28:51.701Z,4.23
2018-12-06T13:31:19.245Z,4.07
2018-12-06T13:33:46.730Z,3.80
2018-12-06T13:36:14.284Z,4.27
2018-12-06T13:38:41.769Z,4.23
2018-12-06T13:41:09.265Z,4.70
2018-12-06T13:43:37.240Z,4.67
2018-12-06T13:46:04.750Z,4.77
2018-12-06T13:48:32.827Z,3.97
2018-12-06T13:51:00.343Z,4.13
2018-12-06T13:53:27.904Z,3.57
2018-12-06T13:55:55.388Z,3.50
2018-12-06T13:58:22.857Z,3.90
2018-12-06T14:00:50.641Z,3.10
2018-12-06T14:03:18.248Z,3.87
2018-12-06T14:05:45.738Z,3.30
2018-12-06T14:08:13.210Z,3.43
2018-12-06T14:10:40.703Z,3.40
2018-12-06T14:13:08.201Z,3.50
2018-12-06T14:15:35.743Z,3.43
2018-12-06T14:18:03.238Z,2.97
2018-12-06T14:20:30.746Z,3.57
2018-12-06T14:22:58.231Z,3.07
2018-12-06T14:25:25.729Z,3.00
2018-12-06T14:27:53.213Z,3.53
2018-12-06T14:30:22.545Z,3.33
2018-12-06T14:32:50.107Z,3.80
2018-12-06T14:35:17.638Z,3.33
2018-12-06T14:37:45.140Z,3.83
2018-12-06T14:40:12.733Z,3.20
2018-12-06T14:42:40.235Z,3.10
2018-12-06T14:45:07.806Z,3.00
2018-12-06T14:47:35.293Z,3.33
2018-12-06T14:50:03.770Z,3.17
2018-12-06T14:52:31.392Z,3.10
2018-12-06T14:54:58.899Z,3.70
2018-12-06T14:57:26.386Z,4.10
2018-12-06T14:59:54.450Z,3.23
2018-12-06T15:02:21.968Z,3.27
2018-12-06T15:04:49.477Z,3.63
2018-12-06T15:07:16.977Z,4.10
2018-12-06T15:09:44.470Z,14.97
2018-12-06T15:12:11.947Z,6.00
2018-12-06T15:14:39.416Z,4.93
2018-12-06T15:17:06.911Z,6.87
2018-12-06T15:19:34.382Z,7.53
2018-12-06T15:22:01.930Z,6.87
2018-12-06T15:24:29.484Z,7.67
2018-12-06T15:26:56.953Z,6.97
2018-12-06T15:29:24.440Z,5.20
2018-12-06T15:31:51.918Z,3.53
2018-12-06T15:34:19.420Z,5.13
2018-12-06T15:36:46.892Z,5.67
2018-12-06T15:39:14.385Z,4.27
2018-12-06T15:41:41.877Z,5.40
2018-12-06T15:44:09.385Z,3.53
2018-12-06T15:46:36.847Z,3.40
2018-12-06T15:49:04.899Z,3.63
2018-12-06T15:51:32.397Z,3.37
2018-12-06T15:53:59.969Z,5.40
2018-12-06T15:56:27.585Z,3.87
2018-12-06T15:58:55.073Z,3.70
2018-12-06T16:01:22.549Z,4.43
2018-12-06T16:03:50.064Z,3.17
2018-12-06T16:06:17.612Z,3.63
2018-12-06T16:08:45.103Z,4.20
2018-12-06T16:11:12.594Z,3.40
2018-12-06T16:13:40.236Z,3.60
2018-12-06T16:16:07.785Z,3.80
2018-12-06T16:18:35.270Z,3.57
2018-12-06T16:21:02.753Z,3.77
2018-12-06T16:23:30.238Z,3.83
2018-12-06T16:25:57.724Z,3.40
2018-12-06T16:28:25.239Z,3.83
2018-12-06T16:30:52.733Z,3.80
2018-12-06T16:33:20.281Z,3.37
2018-12-06T16:35:47.786Z,6.77
2018-12-06T16:38:15.259Z,17.17
2018-12-06T16:40:42.751Z,5.13
2018-12-06T16:43:14.489Z,3.57
2018-12-06T16:45:42.091Z,3.50
2018-12-06T16:48:09.569Z,3.43
2018-12-06T16:50:37.035Z,3.00
2018-12-06T16:53:04.554Z,3.30
2018-12-06T16:55:32.049Z,3.50
2018-12-06T16:57:59.532Z,3.30
2018-12-06T17:00:27.013Z,3.23
2018-12-06T17:02:54.501Z,3.60
2018-12-06T17:05:21.964Z,3.90
2018-12-06T17:07:49.501Z,3.97
2018-12-06T17:10:17.065Z,3.50
2018-12-06T17:12:44.560Z,3.23
2018-12-06T17:15:12.030Z,3.53
2018-12-06T17:17:39.516Z,3.40
2018-12-06T17:20:07.331Z,3.50
2018-12-06T17:22:34.845Z,2.70
2018-12-06T17:25:02.313Z,3.03
2018-12-06T17:27:29.790Z,3.40
2018-12-06T17:29:57.348Z,3.40
2018-12-06T17:32:24.819Z,3.60
2018-12-06T17:34:52.296Z,3.97
2018-12-06T17:37:19.777Z,4.60
2018-12-06T17:39:47.266Z,4.27
2018-12-06T17:42:14.734Z,4.07
2018-12-06T17:44:42.208Z,4.13
2018-12-06T17:47:09.676Z,4.23
2018-12-06T17:49:37.177Z,4.70
2018-12-06T17:52:04.640Z,4.20
2018-12-06T17:54:32.133Z,4.40
2018-12-06T17:56:59.677Z,4.50
2018-12-06T17:59:27.784Z,4.50
2018-12-06T18:01:55.256Z,4.73
2018-12-06T18:04:22.738Z,4.60
2018-12-06T18:06:50.203Z,4.27
2018-12-06T18:09:17.687Z,3.83
2018-12-06T18:11:45.153Z,4.37
2018-12-06T18:14:12.643Z,4.03
2018-12-06T18:16:40.427Z,4.27
2018-12-06T18:19:07.942Z,4.80
2018-12-06T18:21:35.399Z,5.07
2018-12-06T18:24:02.941Z,4.57
2018-12-06T18:26:30.414Z,4.50
2018-12-06T18:28:57.904Z,4.63
2018-12-06T18:31:25.374Z,5.40
2018-12-06T18:33:54.957Z,5.20
2018-12-06T18:36:22.440Z,5.07
2018-12-06T18:38:49.913Z,5.10
2018-12-06T18:41:17.393Z,4.97
2018-12-06T18:43:45.431Z,5.00
2018-12-06T18:46:12.914Z,4.93
2018-12-06T18:48:40.431Z,4.97
2018-12-06T18:51:08.013Z,5.87
2018-12-06T18:53:35.887Z,5.40
2018-12-06T18:56:03.465Z,10.63
2018-12-06T18:58:34.375Z,4.80
2018-12-06T19:01:00.432Z,7.10
2018-12-06T19:03:27.906Z,5.57
2018-12-06T19:05:55.371Z,5.60
2018-12-06T19:08:22.855Z,4.43
2018-12-06T19:10:50.337Z,6.80
2018-12-06T19:13:17.813Z,3.90
2018-12-06T19:15:45.291Z,5.00
2018-12-06T19:18:12.854Z,4.23
2018-12-06T19:20:40.313Z,4.43
2018-12-06T19:23:07.823Z,3.90
2018-12-06T19:25:35.300Z,4.00
2018-12-06T19:28:02.775Z,4.30
2018-12-06T19:30:30.257Z,4.10
2018-12-06T19:33:02.817Z,3.73
2018-12-06T19:35:27.220Z,4.30
2018-12-06T19:37:54.833Z,3.47
2018-12-06T19:40:22.339Z,4.43
2018-12-06T19:42:49.844Z,3.83
2018-12-06T19:45:17.332Z,3.50
2018-12-06T19:47:44.790Z,3.60
2018-12-06T19:50:12.879Z,3.10
2018-12-06T19:52:40.369Z,3.37
2018-12-06T19:55:07.853Z,3.00
2018-12-06T19:57:35.325Z,2.83
2018-12-06T20:00:02.960Z,2.70
2018-12-06T20:02:30.453Z,3.37
2018-12-06T20:04:57.931Z,2.97
2018-12-06T20:07:25.417Z,3.00
2018-12-06T20:09:52.992Z,3.57
2018-12-06T20:12:20.464Z,2.93
2018-12-06T20:14:47.945Z,3.10
2018-12-06T20:17:15.425Z,3.10
2018-12-06T20:19:42.889Z,3.00
2018-12-06T20:22:10.421Z,2.97
2018-12-06T20:24:37.887Z,3.10
2018-12-06T20:27:05.392Z,3.27
2018-12-06T20:29:32.857Z,2.90
2018-12-06T20:32:00.384Z,2.90
2018-12-06T20:34:27.853Z,2.83
2018-12-06T20:36:55.352Z,3.13
2018-12-06T20:39:22.810Z,3.63
2018-12-06T20:41:50.313Z,3.37
2018-12-06T20:44:17.822Z,3.40
2018-12-06T20:46:45.340Z,3.73
2018-12-06T20:49:12.810Z,3.00
2018-12-06T20:51:40.360Z,3.40
2018-12-06T20:54:07.911Z,3.40
2018-12-06T20:56:35.393Z,3.47
2018-12-06T20:59:02.880Z,3.77
2018-12-06T21:01:30.340Z,3.60
2018-12-06T21:03:57.820Z,4.20
2018-12-06T21:06:25.318Z,3.90
2018-12-06T21:08:52.800Z,4.03
2018-12-06T21:11:20.288Z,3.93
2018-12-06T21:13:47.792Z,3.80
2018-12-06T21:16:15.284Z,3.40
2018-12-06T21:18:42.775Z,3.60
2018-12-06T21:21:10.244Z,3.27
2018-12-06T21:23:37.731Z,3.17
2018-12-06T21:26:05.199Z,3.90
2018-12-06T21:28:32.700Z,3.80
2018-12-06T21:31:00.172Z,3.67
2018-12-06T21:33:27.629Z,3.63
2018-12-06T21:35:55.142Z,3.63
2018-12-06T21:38:22.695Z,3.87
2018-12-06T21:40:50.202Z,4.17
2018-12-06T21:43:17.661Z,3.83
2018-12-06T21:45:45.216Z,3.57
2018-12-06T21:48:12.693Z,3.90
2018-12-06T21:50:40.217Z,4.00
2018-12-06T21:53:07.697Z,3.90
2018-12-06T21:55:35.189Z,2.93
2018-12-06T21:58:02.649Z,3.13
2018-12-06T22:00:30.132Z,3.40
2018-12-06T22:02:57.604Z,3.97
2018-12-06T22:05:25.116Z,3.40
2018-12-06T22:07:52.590Z,3.40
2018-12-06T22:10:20.077Z,3.37
2018-12-06T22:12:47.545Z,2.90
2018-12-06T22:15:15.029Z,3.83
2018-12-06T22:17:42.509Z,3.60
2018-12-06T22:20:10.046Z,3.37
2018-12-06T22:22:37.525Z,3.80
2018-12-06T22:25:05.155Z,3.17
2018-12-06T22:27:32.633Z,3.83
2018-12-06T22:30:00.116Z,3.17
2018-12-06T22:32:27.597Z,3.10
2018-12-06T22:34:55.111Z,2.53
2018-12-06T22:37:22.704Z,2.90
2018-12-06T22:39:50.271Z,2.20
2018-12-06T22:42:17.909Z,2.20
2018-12-06T22:44:45.778Z,2.50
2018-12-06T22:47:13.391Z,2.80
2018-12-06T22:49:40.886Z,3.23
2018-12-06T22:52:08.648Z,3.10
2018-12-06T22:54:36.939Z,3.03
2018-12-06T22:57:04.412Z,3.60
2018-12-06T22:59:31.876Z,3.90
2018-12-06T23:01:59.385Z,3.57
2018-12-06T23:04:26.892Z,3.90
2018-12-06T23:06:54.832Z,4.33
2018-12-06T23:09:22.300Z,4.20
2018-12-06T23:11:49.810Z,4.23
2018-12-06T23:14:17.964Z,4.10
2018-12-06T23:16:45.541Z,4.03
2018-12-06T23:19:13.098Z,3.60
2018-12-06T23:21:40.559Z,3.70
2018-12-06T23:24:09.453Z,3.47
2018-12-06T23:26:37.364Z,2.90
2018-12-06T23:29:05.460Z,3.67
2018-12-06T23:31:33.087Z,2.50
2018-12-06T23:34:00.573Z,3.57
2018-12-06T23:36:28.046Z,2.60
2018-12-06T23:38:55.525Z,2.30
2018-12-06T23:41:22.996Z,2.50
2018-12-06T23:43:50.473Z,2.60
2018-12-06T23:46:17.940Z,2.73
2018-12-06T23:48:45.415Z,3.13
2018-12-06T23:51:24.869Z,2.97
2018-12-06T23:53:52.390Z,2.83
2018-12-06T23:56:19.890Z,2.60
2018-12-06T23:58:47.367Z,3.13
